createdAt,value
2018-10-11T00:01:05.419Z,28.03
2018-10-11T00:03:34.092Z,28.47
2018-10-11T00:06:02.803Z,28.80
2018-10-11T00:08:31.531Z,27.90
2018-10-11T00:11:00.288Z,28.70
2018-10-11T00:13:29.018Z,28.10
2018-10-11T00:15:57.712Z,29.00
2018-10-11T00:18:26.387Z,27.70
2018-10-11T00:20:55.076Z,28.27
2018-10-11T00:23:23.779Z,27.97
2018-10-11T00:25:53.065Z,27.63
2018-10-11T00:28:21.755Z,27.77
2018-10-11T00:30:50.572Z,28.23
2018-10-11T00:33:19.200Z,28.00
2018-10-11T00:35:47.907Z,29.37
2018-10-11T00:38:16.587Z,28.47
2018-10-11T00:40:45.276Z,29.17
2018-10-11T00:43:13.952Z,29.23
2018-10-11T00:45:42.676Z,28.80
2018-10-11T00:48:11.403Z,29.63
2018-10-11T00:50:40.108Z,29.27
2018-10-11T00:53:08.812Z,30.73
2018-10-11T00:55:37.576Z,30.03
2018-10-11T00:58:06.445Z,30.87
2018-10-11T01:00:35.181Z,31.30
2018-10-11T01:03:03.892Z,30.77
2018-10-11T01:05:32.672Z,32.57
2018-10-11T01:08:01.349Z,31.80
2018-10-11T01:10:30.029Z,32.47
2018-10-11T01:12:58.726Z,31.50
2018-10-11T01:15:27.495Z,32.00
2018-10-11T01:17:56.189Z,31.80
2018-10-11T01:20:24.879Z,32.80
2018-10-11T01:22:54.048Z,32.57
2018-10-11T01:25:22.784Z,32.83
2018-10-11T01:27:51.472Z,32.30
2018-10-11T01:30:20.202Z,32.60
2018-10-11T01:32:48.907Z,33.47
2018-10-11T01:35:17.604Z,33.40
2018-10-11T01:37:46.293Z,33.77
2018-10-11T01:40:15.060Z,34.03
2018-10-11T01:42:43.756Z,33.10
2018-10-11T01:45:12.718Z,33.93
2018-10-11T01:47:41.384Z,32.33
2018-10-11T01:50:10.093Z,33.37
2018-10-11T01:52:38.819Z,33.33
2018-10-11T01:55:07.516Z,33.67
2018-10-11T01:57:36.258Z,33.97
2018-10-11T02:00:05.623Z,32.70
2018-10-11T02:02:34.330Z,32.60
2018-10-11T02:05:03.036Z,34.10
2018-10-11T02:07:31.735Z,33.00
2018-10-11T02:10:00.437Z,33.23
2018-10-11T02:12:29.158Z,33.80
2018-10-11T02:14:57.816Z,33.63
2018-10-11T02:17:26.510Z,32.80
2018-10-11T02:19:55.496Z,33.07
2018-10-11T02:22:24.188Z,31.57
2018-10-11T02:24:52.879Z,32.90
2018-10-11T02:27:21.572Z,34.20
2018-10-11T02:29:50.252Z,33.73
2018-10-11T02:32:18.943Z,33.53
2018-10-11T02:34:47.630Z,32.70
2018-10-11T02:37:16.326Z,33.77
2018-10-11T02:39:45.007Z,33.13
2018-10-11T02:42:13.753Z,34.20
2018-10-11T02:44:42.468Z,34.63
2018-10-11T02:47:11.560Z,34.20
2018-10-11T02:49:40.531Z,33.80
2018-10-11T02:52:09.275Z,34.87
2018-10-11T02:54:37.989Z,34.20
2018-10-11T02:57:11.178Z,33.57
2018-10-11T02:59:39.858Z,32.53
2018-10-11T03:02:11.592Z,34.93
2018-10-11T03:04:40.305Z,35.10
2018-10-11T03:07:09.983Z,34.80
2018-10-11T03:09:39.009Z,32.90
2018-10-11T03:12:07.761Z,34.87
2018-10-11T03:14:36.423Z,34.50
2018-10-11T03:17:05.145Z,35.43
2018-10-11T03:19:33.897Z,34.93
2018-10-11T03:22:02.572Z,35.40
2018-10-11T03:24:31.261Z,36.13
2018-10-11T03:27:00.753Z,36.47
2018-10-11T03:29:30.552Z,36.20
2018-10-11T03:31:59.240Z,36.97
2018-10-11T03:34:29.049Z,37.37
2018-10-11T03:36:59.091Z,37.23
2018-10-11T03:39:28.668Z,36.37
2018-10-11T03:41:58.536Z,38.13
2018-10-11T03:44:27.792Z,37.60
2018-10-11T03:46:56.533Z,37.90
2018-10-11T03:49:25.700Z,38.57
2018-10-11T03:51:54.459Z,36.67
2018-10-11T03:54:23.124Z,39.03
2018-10-11T03:56:52.045Z,38.83
2018-10-11T03:59:20.723Z,38.53
2018-10-11T04:01:49.434Z,38.00
2018-10-11T04:04:18.125Z,37.70
2018-10-11T04:06:46.808Z,37.87
2018-10-11T04:09:15.590Z,38.20
2018-10-11T04:11:44.246Z,37.80
2018-10-11T04:14:12.952Z,38.33
2018-10-11T04:16:41.630Z,38.10
2018-10-11T04:19:10.325Z,39.20
2018-10-11T04:21:39.001Z,38.23
2018-10-11T04:24:07.707Z,39.57
2018-10-11T04:26:36.381Z,38.00
2018-10-11T04:29:05.155Z,39.63
2018-10-11T04:31:33.840Z,39.00
2018-10-11T04:34:02.515Z,38.53
2018-10-11T04:36:31.239Z,38.53
2018-10-11T04:38:59.967Z,40.50
2018-10-11T04:41:28.720Z,39.37
2018-10-11T04:43:57.550Z,38.33
2018-10-11T04:46:26.220Z,40.07
2018-10-11T04:48:54.900Z,37.77
2018-10-11T04:51:23.550Z,38.67
2018-10-11T04:53:55.668Z,39.37
2018-10-11T04:56:25.372Z,39.47
2018-10-11T04:58:54.264Z,39.27
2018-10-11T05:01:22.939Z,38.57
2018-10-11T05:03:51.624Z,40.80
2018-10-11T05:06:20.315Z,39.53
2018-10-11T05:08:49.023Z,37.97
2018-10-11T05:11:17.809Z,38.33
2018-10-11T05:13:48.313Z,40.00
2018-10-11T05:16:18.124Z,37.70
2018-10-11T05:18:52.098Z,38.83
2018-10-11T05:21:20.829Z,39.10
2018-10-11T05:23:49.479Z,39.97
2018-10-11T05:26:18.278Z,40.00
2018-10-11T05:28:46.863Z,39.93
2018-10-11T05:31:16.298Z,39.20
2018-10-11T05:33:45.019Z,39.17
2018-10-11T05:36:14.355Z,38.57
2018-10-11T05:38:43.743Z,38.20
2018-10-11T05:41:12.926Z,37.67
2018-10-11T05:43:41.749Z,38.87
2018-10-11T05:46:15.695Z,39.33
2018-10-11T05:48:44.542Z,38.60
2018-10-11T05:51:13.322Z,38.00
2018-10-11T05:53:43.601Z,36.50
2018-10-11T05:56:12.418Z,36.00
2018-10-11T05:58:41.110Z,34.30
2018-10-11T06:01:09.798Z,32.73
2018-10-11T06:03:38.477Z,34.27
2018-10-11T06:06:07.135Z,32.27
2018-10-11T06:08:35.839Z,32.77
2018-10-11T06:11:04.808Z,31.87
2018-10-11T06:13:33.475Z,31.63
2018-10-11T06:16:02.174Z,31.10
2018-10-11T06:18:30.845Z,30.57
2018-10-11T06:20:59.913Z,30.50
2018-10-11T06:23:28.669Z,29.83
2018-10-11T06:25:57.399Z,29.47
2018-10-11T06:28:26.134Z,31.07
2018-10-11T06:30:55.251Z,30.87
2018-10-11T06:33:24.068Z,30.10
2018-10-11T06:35:53.830Z,32.07
2018-10-11T06:38:22.515Z,30.90
2018-10-11T06:40:51.277Z,30.57
2018-10-11T06:43:20.368Z,29.80
2018-10-11T06:45:49.081Z,29.27
2018-10-11T06:48:18.088Z,30.37
2018-10-11T06:50:46.808Z,29.20
2018-10-11T06:53:15.546Z,29.23
2018-10-11T06:55:44.276Z,30.67
2018-10-11T06:58:13.992Z,29.87
2018-10-11T07:00:42.689Z,30.77
2018-10-11T07:03:11.371Z,30.53
2018-10-11T07:05:40.055Z,31.47
2018-10-11T07:08:08.778Z,31.03
2018-10-11T07:10:37.502Z,29.27
2018-10-11T07:13:06.176Z,30.37
2018-10-11T07:15:34.846Z,29.17
2018-10-11T07:18:03.527Z,28.73
2018-10-11T07:20:32.216Z,28.70
2018-10-11T07:23:00.889Z,28.43
2018-10-11T07:25:30.320Z,29.03
2018-10-11T07:27:58.976Z,28.73
2018-10-11T07:30:27.676Z,28.43
2018-10-11T07:32:56.398Z,28.43
2018-10-11T07:35:25.262Z,29.43
2018-10-11T07:37:53.769Z,29.10
2018-10-11T07:40:22.583Z,28.47
2018-10-11T07:42:51.264Z,28.40
2018-10-11T07:45:19.989Z,27.00
2018-10-11T07:47:48.693Z,29.33
2018-10-11T07:50:17.453Z,27.80
2018-10-11T07:52:46.242Z,29.57
2018-10-11T07:55:14.927Z,28.57
2018-10-11T07:57:43.640Z,29.80
2018-10-11T08:00:13.230Z,31.20
2018-10-11T08:02:43.133Z,29.50
2018-10-11T08:05:12.860Z,29.80
2018-10-11T08:07:41.642Z,29.67
2018-10-11T08:10:10.300Z,28.93
2018-10-11T08:12:38.992Z,29.77
2018-10-11T08:15:07.873Z,29.67
2018-10-11T08:17:37.274Z,29.23
2018-10-11T08:20:05.724Z,29.67
2018-10-11T08:22:34.367Z,30.30
2018-10-11T08:25:04.068Z,29.87
2018-10-11T08:27:32.708Z,30.53
2018-10-11T08:30:01.466Z,30.57
2018-10-11T08:32:30.526Z,29.13
2018-10-11T08:34:59.768Z,30.37
2018-10-11T08:37:29.029Z,29.27
2018-10-11T08:39:57.699Z,29.47
2018-10-11T08:42:26.373Z,29.90
2018-10-11T08:44:55.085Z,29.07
2018-10-11T08:47:23.804Z,28.30
2018-10-11T08:49:52.549Z,29.07
2018-10-11T08:52:21.267Z,29.70
2018-10-11T08:54:51.172Z,29.27
2018-10-11T08:57:21.316Z,28.40
2018-10-11T08:59:50.369Z,28.20
2018-10-11T09:02:19.055Z,27.87
2018-10-11T09:04:47.735Z,29.17
2018-10-11T09:07:16.463Z,27.90
2018-10-11T09:09:53.436Z,27.90
2018-10-11T09:12:15.112Z,28.17
2018-10-11T09:14:43.868Z,27.00
2018-10-11T09:17:12.659Z,25.53
2018-10-11T09:19:41.328Z,26.60
2018-10-11T09:22:10.080Z,26.13
2018-10-11T09:24:38.846Z,26.83
2018-10-11T09:27:08.069Z,26.93
2018-10-11T09:29:36.824Z,26.90
2018-10-11T09:32:05.496Z,26.60
2018-10-11T09:34:34.319Z,27.20
2018-10-11T09:37:03.127Z,26.73
2018-10-11T09:39:31.810Z,26.03
2018-10-11T09:42:01.216Z,26.00
2018-10-11T09:44:29.928Z,26.23
2018-10-11T09:46:58.715Z,26.00
2018-10-11T09:49:27.527Z,25.87
2018-10-11T09:51:56.353Z,26.40
2018-10-11T09:54:25.248Z,25.20
2018-10-11T09:57:26.758Z,26.90
2018-10-11T09:59:55.843Z,25.73
2018-10-11T10:02:25.342Z,25.70
2018-10-11T10:04:58.279Z,24.57
2018-10-11T10:07:27.095Z,25.53
2018-10-11T10:09:56.589Z,25.87
2018-10-11T10:12:25.243Z,24.07
2018-10-11T10:14:54.229Z,23.63
2018-10-11T10:17:23.435Z,24.40
2018-10-11T10:19:52.185Z,24.83
2018-10-11T10:22:21.793Z,25.10
2018-10-11T10:24:50.556Z,23.70
2018-10-11T10:27:19.779Z,24.80
2018-10-11T10:29:48.364Z,24.00
2018-10-11T10:32:17.128Z,24.07
2018-10-11T10:34:46.032Z,24.30
2018-10-11T10:37:14.770Z,23.93
2018-10-11T10:39:43.742Z,23.67
2018-10-11T10:42:12.419Z,24.07
2018-10-11T10:44:41.131Z,23.37
2018-10-11T10:49:44.761Z,23.53
2018-10-11T10:52:13.495Z,23.23
2018-10-11T10:54:42.191Z,22.53
2018-10-11T10:57:10.914Z,22.17
2018-10-11T10:59:39.699Z,22.47
2018-10-11T11:02:08.436Z,22.47
2018-10-11T11:04:37.203Z,21.67
2018-10-11T11:07:05.930Z,21.30
2018-10-11T11:09:34.622Z,20.10
2018-10-11T11:12:03.387Z,20.43
2018-10-11T11:14:32.071Z,20.77
2018-10-11T11:17:00.791Z,20.83
2018-10-11T11:19:29.532Z,19.87
2018-10-11T11:21:58.331Z,20.53
2018-10-11T11:24:27.130Z,20.40
2018-10-11T11:26:55.905Z,20.37
2018-10-11T11:29:24.603Z,19.33
2018-10-11T11:31:53.358Z,19.43
2018-10-11T11:34:23.018Z,18.37
2018-10-11T11:36:51.747Z,19.07
2018-10-11T11:39:20.714Z,18.10
2018-10-11T11:41:49.472Z,18.73
2018-10-11T11:44:18.618Z,18.37
2018-10-11T11:46:47.489Z,18.73
2018-10-11T11:49:16.280Z,17.93
2018-10-11T11:51:46.222Z,17.90
2018-10-11T11:54:15.719Z,16.77
2018-10-11T11:56:44.557Z,17.03
2018-10-11T11:59:13.379Z,16.57
2018-10-11T12:01:42.049Z,16.73
2018-10-11T12:04:17.182Z,16.60
2018-10-11T12:06:45.995Z,16.57
2018-10-11T12:09:15.146Z,16.50
2018-10-11T12:11:43.832Z,16.43
2018-10-11T12:14:13.415Z,15.97
2018-10-11T12:16:42.200Z,16.40
2018-10-11T12:19:11.381Z,15.40
2018-10-11T12:21:40.348Z,15.90
2018-10-11T12:24:09.211Z,16.30
2018-10-11T12:26:37.934Z,15.57
2018-10-11T12:29:09.024Z,16.03
2018-10-11T12:31:38.123Z,16.20
2018-10-11T12:34:06.903Z,19.53
2018-10-11T12:36:35.715Z,15.33
2018-10-11T12:39:06.410Z,15.73
2018-10-11T12:41:35.162Z,15.90
2018-10-11T12:44:03.898Z,16.20
2018-10-11T12:46:34.059Z,16.63
2018-10-11T12:49:01.372Z,17.17
2018-10-11T12:51:30.151Z,17.10
2018-10-11T12:53:58.886Z,16.70
2018-10-11T12:56:27.665Z,16.37
2018-10-11T12:58:56.294Z,16.83
2018-10-11T13:01:25.038Z,16.23
2018-10-11T13:03:53.705Z,15.83
2018-10-11T13:06:22.596Z,17.23
2018-10-11T13:08:51.288Z,17.00
2018-10-11T13:11:19.993Z,16.70
2018-10-11T13:13:52.021Z,17.40
2018-10-11T13:16:17.356Z,16.53
2018-10-11T13:18:46.601Z,16.90
2018-10-11T13:21:16.190Z,17.00
2018-10-11T13:23:46.080Z,16.67
2018-10-11T13:26:14.777Z,16.70
2018-10-11T13:28:43.554Z,17.17
2018-10-11T13:31:12.398Z,17.30
2018-10-11T13:33:41.108Z,16.70
2018-10-11T13:36:09.912Z,16.20
2018-10-11T13:38:38.609Z,16.27
2018-10-11T13:41:07.326Z,15.63
2018-10-11T13:43:36.058Z,16.23
2018-10-11T13:46:04.893Z,16.47
2018-10-11T13:48:33.652Z,16.43
2018-10-11T13:51:03.655Z,16.27
2018-10-11T13:53:33.114Z,16.23
2018-10-11T13:56:01.830Z,15.90
2018-10-11T13:58:30.650Z,15.63
2018-10-11T14:00:59.375Z,15.73
2018-10-11T14:03:28.121Z,14.87
2018-10-11T14:05:56.807Z,15.73
2018-10-11T14:08:25.497Z,15.33
2018-10-11T14:10:54.273Z,14.90
2018-10-11T14:13:23.005Z,15.77
2018-10-11T14:15:51.761Z,15.60
2018-10-11T14:18:20.478Z,15.20
2018-10-11T14:20:49.237Z,15.43
2018-10-11T14:23:17.977Z,14.47
2018-10-11T14:25:46.764Z,15.37
2018-10-11T14:28:15.459Z,15.60
2018-10-11T14:30:44.215Z,14.63
2018-10-11T14:33:12.972Z,14.97
2018-10-11T14:35:41.726Z,14.33
2018-10-11T14:38:10.484Z,14.33
2018-10-11T14:40:39.521Z,14.27
2018-10-11T14:43:08.283Z,13.90
2018-10-11T14:45:37.062Z,14.20
2018-10-11T14:48:05.884Z,13.40
2018-10-11T14:50:34.590Z,13.67
2018-10-11T14:53:03.289Z,13.10
2018-10-11T14:55:31.968Z,13.83
2018-10-11T14:58:00.760Z,12.87
2018-10-11T15:00:29.585Z,13.40
2018-10-11T15:02:58.406Z,13.40
2018-10-11T15:05:27.117Z,12.73
2018-10-11T15:07:55.830Z,13.03
2018-10-11T15:10:24.610Z,12.97
2018-10-11T15:12:53.291Z,12.93
2018-10-11T15:15:22.414Z,13.37
2018-10-11T15:17:51.237Z,12.60
2018-10-11T15:20:19.835Z,13.33
2018-10-11T15:22:48.551Z,13.70
2018-10-11T15:25:17.275Z,13.60
2018-10-11T15:27:45.960Z,13.37
2018-10-11T15:30:14.690Z,14.07
2018-10-11T15:32:43.423Z,14.63
2018-10-11T15:35:12.135Z,14.50
2018-10-11T15:37:40.882Z,14.80
2018-10-11T15:40:09.680Z,14.77
2018-10-11T15:42:38.513Z,14.60
2018-10-11T15:45:08.291Z,15.30
2018-10-11T15:47:37.133Z,14.70
2018-10-11T15:50:05.953Z,14.83
2018-10-11T15:52:34.743Z,15.40
2018-10-11T15:55:03.371Z,15.70
2018-10-11T15:57:32.118Z,15.33
2018-10-11T16:00:00.865Z,16.03
2018-10-11T16:02:29.625Z,15.67
2018-10-11T16:05:00.458Z,15.87
2018-10-11T16:07:29.205Z,15.60
2018-10-11T16:09:57.941Z,15.57
2018-10-11T16:12:26.671Z,15.93
2018-10-11T16:14:55.420Z,16.53
2018-10-11T16:20:09.771Z,15.83
2018-10-11T16:22:38.767Z,16.97
2018-10-11T16:25:17.409Z,17.33
2018-10-11T16:27:49.962Z,16.30
2018-10-11T16:30:20.840Z,16.80
2018-10-11T16:32:50.516Z,16.27
2018-10-11T16:35:20.052Z,16.60
2018-10-11T16:37:58.321Z,17.33
2018-10-11T16:40:29.473Z,16.27
2018-10-11T16:43:00.136Z,16.27
2018-10-11T16:45:28.960Z,15.93
2018-10-11T16:47:58.531Z,16.17
2018-10-11T16:50:43.270Z,15.53
2018-10-11T16:53:16.385Z,15.90
2018-10-11T16:55:45.280Z,16.13
2018-10-11T16:58:14.137Z,15.83
2018-10-11T17:00:44.551Z,15.63
2018-10-11T17:04:24.967Z,16.37
2018-10-11T17:07:03.872Z,17.87
2018-10-11T17:09:33.391Z,17.93
2018-10-11T17:12:04.158Z,16.40
2018-10-11T17:14:36.902Z,16.60
2018-10-11T17:17:06.248Z,15.80
2018-10-11T17:19:35.893Z,16.00
2018-10-11T17:22:07.541Z,16.43
2018-10-11T17:24:38.507Z,16.63
2018-10-11T17:27:07.695Z,16.93
2018-10-11T17:29:36.497Z,16.57
2018-10-11T17:32:05.364Z,16.50
2018-10-11T17:34:37.632Z,17.00
2018-10-11T17:37:07.265Z,17.90
2018-10-11T17:39:36.130Z,17.93
2018-10-11T17:42:05.218Z,19.40
2018-10-11T17:44:33.960Z,17.50
2018-10-11T17:47:02.835Z,17.57
2018-10-11T17:49:33.116Z,17.80
2018-10-11T17:52:07.184Z,17.17
2018-10-11T17:54:36.188Z,16.50
2018-10-11T17:57:05.168Z,17.87
2018-10-11T17:59:42.312Z,18.13
2018-10-11T18:04:46.199Z,18.97
2018-10-11T18:07:20.566Z,16.90
2018-10-11T18:09:49.870Z,16.60
2018-10-11T18:12:18.635Z,17.47
2018-10-11T18:14:47.463Z,17.20
2018-10-11T18:19:56.341Z,18.73
2018-10-11T18:22:25.193Z,18.67
2018-10-11T18:24:53.891Z,18.03
2018-10-11T18:27:23.829Z,17.90
2018-10-11T18:29:52.617Z,17.37
2018-10-11T18:32:22.397Z,16.90
2018-10-11T18:34:51.806Z,16.67
2018-10-11T18:37:20.631Z,17.53
2018-10-11T18:39:50.115Z,16.77
2018-10-11T18:42:19.349Z,16.50
2018-10-11T18:44:48.254Z,17.40
2018-10-11T18:49:53.618Z,16.93
2018-10-11T18:52:22.559Z,16.70
2018-10-11T18:54:51.279Z,17.07
2018-10-11T18:57:20.174Z,16.43
2018-10-11T18:59:48.914Z,16.80
2018-10-11T19:02:18.934Z,16.10
2018-10-11T19:04:50.541Z,16.50
2018-10-11T19:07:20.653Z,17.00
2018-10-11T19:09:50.343Z,16.47
2018-10-11T19:12:19.149Z,16.13
2018-10-11T19:14:47.848Z,15.97
2018-10-11T19:17:16.538Z,16.00
2018-10-11T19:19:45.484Z,16.13
2018-10-11T19:22:14.185Z,16.33
2018-10-11T19:24:42.892Z,15.97
2018-10-11T19:27:20.935Z,15.90
2018-10-11T19:29:50.884Z,16.17
2018-10-11T19:32:19.843Z,16.57
2018-10-11T19:34:48.519Z,15.93
2018-10-11T19:37:17.323Z,16.23
2018-10-11T19:39:46.543Z,16.10
2018-10-11T19:42:16.774Z,16.60
2018-10-11T19:44:45.620Z,16.97
2018-10-11T19:47:21.001Z,15.87
2018-10-11T19:49:50.943Z,17.07
2018-10-11T19:52:19.666Z,16.83
2018-10-11T19:54:51.495Z,17.03
2018-10-11T19:57:28.365Z,16.57
2018-10-11T19:59:57.249Z,17.70
2018-10-11T20:02:26.956Z,16.67
2018-10-11T20:04:55.652Z,16.77
2018-10-11T20:07:24.425Z,17.20
2018-10-11T20:09:53.838Z,17.47
2018-10-11T20:12:22.646Z,18.03
2018-10-11T20:14:51.356Z,17.53
2018-10-11T20:17:20.135Z,18.23
2018-10-11T20:19:48.858Z,18.40
2018-10-11T20:22:17.630Z,18.20
2018-10-11T20:24:46.353Z,18.20
2018-10-11T20:27:15.080Z,18.43
2018-10-11T20:29:43.865Z,18.93
2018-10-11T20:32:12.567Z,18.67
2018-10-11T20:34:41.306Z,18.30
2018-10-11T20:37:10.042Z,19.20
2018-10-11T20:39:38.801Z,19.90
2018-10-11T20:42:07.615Z,19.37
2018-10-11T20:44:36.371Z,20.20
2018-10-11T20:49:41.185Z,19.30
2018-10-11T20:52:09.909Z,19.57
2018-10-11T20:54:38.664Z,20.30
2018-10-11T20:57:07.486Z,19.97
2018-10-11T20:59:36.127Z,20.50
2018-10-11T21:02:04.919Z,20.50
2018-10-11T21:04:33.637Z,21.53
2018-10-11T21:07:02.386Z,20.80
2018-10-11T21:09:31.103Z,20.83
2018-10-11T21:11:59.952Z,21.10
2018-10-11T21:14:28.824Z,20.80
2018-10-11T21:16:57.562Z,22.40
2018-10-11T21:19:26.392Z,21.10
2018-10-11T21:21:55.077Z,21.40
2018-10-11T21:24:23.807Z,21.63
2018-10-11T21:26:52.537Z,22.10
2018-10-11T21:29:21.261Z,23.23
2018-10-11T21:31:49.963Z,22.37
2018-10-11T21:34:18.890Z,22.67
2018-10-11T21:36:47.708Z,21.87
2018-10-11T21:39:16.501Z,21.50
2018-10-11T21:41:45.232Z,22.20
2018-10-11T21:44:14.101Z,22.43
2018-10-11T21:46:42.835Z,22.33
2018-10-11T21:49:11.746Z,23.63
2018-10-11T21:51:40.533Z,23.50
2018-10-11T21:54:09.284Z,23.60
2018-10-11T21:56:38.036Z,23.07
2018-10-11T21:59:06.931Z,23.50
2018-10-11T22:01:35.884Z,23.73
2018-10-11T22:04:04.696Z,23.23
2018-10-11T22:06:33.433Z,23.23
2018-10-11T22:09:02.150Z,22.73
2018-10-11T22:11:30.940Z,22.97
2018-10-11T22:13:59.732Z,23.60
2018-10-11T22:16:28.514Z,23.40
2018-10-11T22:18:57.254Z,23.47
2018-10-11T22:21:25.967Z,24.10
2018-10-11T22:23:54.681Z,25.07
2018-10-11T22:26:23.389Z,24.57
2018-10-11T22:28:52.855Z,24.40
2018-10-11T22:31:21.608Z,25.03
2018-10-11T22:33:50.298Z,23.40
2018-10-11T22:36:19.027Z,24.33
2018-10-11T22:38:47.712Z,24.07
2018-10-11T22:41:16.393Z,24.00
2018-10-11T22:43:45.139Z,24.13
2018-10-11T22:46:14.020Z,23.63
2018-10-11T22:48:42.944Z,24.63
2018-10-11T22:51:12.249Z,25.00
2018-10-11T22:53:41.294Z,24.63
2018-10-11T22:56:09.996Z,25.17
2018-10-11T22:58:38.721Z,25.57
2018-10-11T23:01:07.678Z,25.40
2018-10-11T23:03:36.390Z,24.70
2018-10-11T23:06:05.249Z,25.27
2018-10-11T23:08:34.083Z,24.63
2018-10-11T23:11:02.815Z,25.20
2018-10-11T23:13:31.538Z,24.53
2018-10-11T23:16:00.760Z,25.30
2018-10-11T23:18:29.540Z,25.77
2018-10-11T23:20:58.412Z,25.60
2018-10-11T23:23:27.581Z,24.73
2018-10-11T23:25:56.337Z,25.83
2018-10-11T23:28:25.038Z,24.77
2018-10-11T23:30:53.789Z,26.03
2018-10-11T23:33:22.558Z,26.07
2018-10-11T23:35:51.295Z,26.40
2018-10-11T23:38:20.069Z,26.00
2018-10-11T23:40:48.772Z,26.83
2018-10-11T23:43:17.475Z,27.80
2018-10-11T23:45:46.194Z,26.17
2018-10-11T23:48:14.889Z,26.37
2018-10-11T23:50:43.598Z,26.33
2018-10-11T23:53:12.415Z,26.07
2018-10-11T23:55:41.187Z,26.40
2018-10-11T23:58:09.861Z,27.50
